Flight Track Log - Related Links

Times and Time Zones

All times are in EDT time to prevent confusion due to time zone crossing. See the UAL6025 flight status page for this flight to view local times or setup timezone preferences in your user account.

Time Position Orientation Groundspeed Altitude Reporting Facility
EDT Latitude Longitude Course Direction KTS MPH feet Rate Location/Type
Tue 03:58:55 PM 41.9820 -87.9230 320° Northwest 155 178  Level FlightAware ADS-B
Tue 03:59:11 PM 41.9930 -87.9350 321° Northwest 167 192 1,400 4,500 Climbing FlightAware ADS-B
Tue 03:59:19 PM 41.9980 -87.9390 329° Northwest 172 198 1,800 1,571 Climbing FlightAware ADS-B
Tue 03:59:53 PM 42.0270 -87.9240 21° North 237 273 2,500 2,000 Climbing FlightAware ADS-B
Tue 04:00:22 PM 42.0510 -87.8950 42° Northeast 247 284 3,900 2,308 Climbing FlightAware ADS-B
Tue 04:00:45 PM 42.0730 -87.8690 41° Northeast 279 321 4,500 1,610 Climbing FlightAware ADS-B
Tue 04:01:03 PM 42.0910 -87.8480 41° Northeast 296 341 5,000 1,773 Climbing FlightAware ADS-B
Tue 04:01:29 PM 42.1190 -87.8140 42° Northeast 305 351 5,800 2,316 Climbing FlightAware ADS-B
Tue 04:02:00 PM 42.1500 -87.7780 41° Northeast 313 360 7,200 2,939 Climbing FlightAware ADS-B
Tue 04:02:18 PM 42.1700 -87.7550 40° Northeast 311 358 8,200 3,257 Climbing FlightAware ADS-B
Tue 04:02:35 PM 42.1870 -87.7280 50° Northeast 318 366 9,100 2,897 Climbing FlightAware ADS-B
Tue 04:02:47 PM 42.1930 -87.7070 69° East 321 369 9,600 2,455 Climbing FlightAware ADS-B
Tue 04:02:57 PM 42.1960 -87.6880 78° East 326 375 10,000 2,632 Climbing FlightAware ADS-B
Tue 04:03:44 PM 42.2000 -87.5880 87° East 341 392 12,100 2,815 Climbing FlightAware ADS-B
Tue 04:04:18 PM 42.2030 -87.5150 87° East 342 394 13,800 2,620 Climbing FlightAware ADS-B
Tue 04:04:55 PM 42.2060 -87.4360 87° East 355 409 15,200 2,451 Climbing FlightAware ADS-B
Tue 04:05:29 PM 42.1860 -87.3650 111° Southeast 351 404 16,700 2,494 Climbing FlightAware ADS-B
Tue 04:06:12 PM 42.1470 -87.2860 124° Southeast 354 407 18,400 2,325 Climbing FlightAware ADS-B
Tue 04:06:49 PM 42.1130 -87.2170 124° Southeast 360 414 19,800 2,074 Climbing FlightAware ADS-B
Tue 04:07:33 PM 42.0730 -87.1340 123° Southeast 368 423 21,200 1,793 Climbing FlightAware ADS-B
Tue 04:08:16 PM 42.0320 -87.0500 123° Southeast 378 435 22,400 1,143 Climbing FlightAware ADS-B
Tue 04:08:57 PM 41.9910 -86.9660 123° Southeast 409 471 22,800 684 Climbing FlightAware ADS-B
Tue 04:09:35 PM 41.9510 -86.8840 123° Southeast 430 495 23,300 1,077 Climbing FlightAware ADS-B
Tue 04:10:15 PM 41.9070 -86.7940 123° Southeast 440 506 24,200 1,500 Climbing FlightAware ADS-B
Tue 04:10:51 PM 41.8670 -86.7130 124° Southeast 443 510 25,200 1,435 Climbing FlightAware ADS-B
Tue 04:11:47 PM 41.8030 -86.5840 124° Southeast 450 518 26,400 1,333 Climbing FlightAware ADS-B
Tue 04:12:21 PM 41.7630 -86.5030 123° Southeast 454 522 27,200 1,250 Climbing FlightAware ADS-B
Tue 04:12:59 PM 41.7190 -86.4150 124° Southeast 460 529 27,900 1,129 Climbing FlightAware ADS-B
Tue 04:13:46 PM 41.6620 -86.3000 124° Southeast 467 537 28,800 1,023 Climbing FlightAware ADS-B
Tue 04:14:27 PM 41.6120 -86.2000 124° Southeast 474 545 29,400 923 Climbing FlightAware ADS-B
Tue 04:15:04 PM 41.5670 -86.1100 124° Southeast 479 551 30,000 977 Climbing FlightAware ADS-B
Tue 04:15:53 PM 41.5150 -85.9880 120° Southeast 482 555 30,800 918 Climbing FlightAware ADS-B
Tue 04:16:29 PM 41.4870 -85.8820 109° East 485 558 31,300 723 Climbing FlightAware ADS-B
Tue 04:17:16 PM 41.4540 -85.7540 109° East 492 566 31,800 776 Climbing FlightAware ADS-B
Tue 04:17:54 PM 41.4240 -85.6410 109° East 494 568 32,400 1,067 Climbing FlightAware ADS-B
Tue 04:18:46 PM 41.3850 -85.4940 109° East 489 563 33,400 1,290 Climbing FlightAware ADS-B
Tue 04:19:27 PM 41.3530 -85.3750 110° East 479 551 34,400 1,214 Climbing FlightAware ADS-B
Tue 04:20:10 PM 41.3230 -85.2620 109° East 476 548 35,100 918 Climbing FlightAware ADS-B
Tue 04:20:52 PM 41.2900 -85.1440 110° East 473 544 35,700 1,037 Climbing FlightAware ADS-B
Tue 04:21:31 PM 41.2620 -85.0390 110° East 464 534 36,500 907 Climbing FlightAware ADS-B
Tue 04:22:18 PM 41.2270 -84.9120 110° East 464 534 37,000 349 Climbing FlightAware ADS-B
Tue 04:22:57 PM 41.1990 -84.8070 109° East 464 534 37,000  Level FlightAware ADS-B
Tue 04:23:41 PM 41.1660 -84.6890 110° East 471 542 37,000  Level FlightAware ADS-B
Tue 04:24:21 PM 41.1230 -84.5890 120° Southeast 477 549 37,000  Level FlightAware ADS-B
Tue 04:25:05 PM 41.0710 -84.4790 122° Southeast 475 547 37,000  Level FlightAware ADS-B
Tue 04:25:46 PM 41.0250 -84.3800 122° Southeast 477 549 37,000  Level FlightAware ADS-B
Tue 04:26:29 PM 40.9730 -84.2730 123° Southeast 475 547 37,000  Level FlightAware ADS-B
Tue 04:27:11 PM 40.9250 -84.1730 122° Southeast 477 549 37,000  Level FlightAware ADS-B
Tue 04:27:51 PM 40.8770 -84.0710 122° Southeast 477 549 37,000  Level FlightAware ADS-B
Tue 04:28:36 PM 40.8250 -83.9610 122° Southeast 477 549 37,000  Level FlightAware ADS-B
Tue 04:29:15 PM 40.7790 -83.8640 122° Southeast 475 547 37,000  Level FlightAware ADS-B
Tue 04:29:59 PM 40.7430 -83.7470 112° Southeast 466 536 37,000  Level FlightAware ADS-B
Tue 04:30:40 PM 40.7180 -83.6390 107° East 464 534 37,000  Level FlightAware ADS-B
Tue 04:31:21 PM 40.6920 -83.5270 107° East 463 533 37,000  Level FlightAware ADS-B
Tue 04:32:05 PM 40.6640 -83.4090 107° East 464 534 37,000  Level FlightAware ADS-B
Tue 04:32:44 PM 40.6390 -83.3040 107° East 464 534 37,000  Level FlightAware ADS-B
Tue 04:33:29 PM 40.6100 -83.1810 107° East 465 535 37,000  Level FlightAware ADS-B
Tue 04:34:08 PM 40.5850 -83.0780 108° East 465 535 37,000  Level FlightAware ADS-B
Tue 04:34:42 PM 40.5630 -82.9860 107° East 468 539 37,000  Level FlightAware ADS-B
Tue 04:35:28 PM 40.5330 -82.8600 107° East 472 543 37,000  Level FlightAware ADS-B
Tue 04:36:06 PM 40.5090 -82.7630 108° East 467 537 37,000  Level FlightAware ADS-B
Tue 04:36:50 PM 40.4800 -82.6440 108° East 464 534 37,000  Level FlightAware ADS-B
Tue 04:37:35 PM 40.4520 -82.5210 107° East 460 529 37,000  Level FlightAware ADS-B
Tue 04:38:14 PM 40.4420 -82.4110 97° East 462 532 37,000  Level FlightAware ADS-B
Tue 04:38:56 PM 40.4330 -82.2990 96° East 462 532 37,000  Level FlightAware ADS-B
Tue 04:39:34 PM 40.4240 -82.1910 96° East 467 537 37,000  Level FlightAware ADS-B
Tue 04:40:11 PM 40.4150 -82.0820 96° East 468 539 37,000  Level FlightAware ADS-B
Tue 04:40:57 PM 40.4040 -81.9520 96° East 469 540 37,000  Level FlightAware ADS-B
Tue 04:41:33 PM 40.3960 -81.8500 96° East 470 541 37,000  Level FlightAware ADS-B
Tue 04:42:12 PM 40.3890 -81.7400 95° East 471 542 37,000  Level FlightAware ADS-B
Tue 04:42:56 PM 40.3810 -81.6160 95° East 473 544 37,000  Level FlightAware ADS-B
Tue 04:43:38 PM 40.3750 -81.4950 94° East 473 544 37,000  Level FlightAware ADS-B
Tue 04:44:20 PM 40.3630 -81.3790 98° East 480 552 37,000  Level FlightAware ADS-B
Tue 04:45:00 PM 40.3270 -81.2680 113° Southeast 488 562 37,000  Level FlightAware ADS-B
Tue 04:45:44 PM 40.2670 -81.1670 128° Southeast 490 564 37,000  Level FlightAware ADS-B
Tue 04:46:08 PM 40.2290 -81.1130 133° Southeast 489 563 37,000  Level FlightAware ADS-B
Tue 04:46:52 PM 40.1620 -81.0190 133° Southeast 488 562 37,000  Level FlightAware ADS-B
Tue 04:47:35 PM 40.0950 -80.9260 133° Southeast 488 562 37,000  Level FlightAware ADS-B
Tue 04:48:12 PM 40.0380 -80.8470 133° Southeast 487 560 37,000  Level FlightAware ADS-B
Tue 04:48:59 PM 39.9780 -80.7370 125° Southeast 486 559 37,000  Level FlightAware ADS-B
Tue 04:49:42 PM 39.9270 -80.6280 121° Southeast 483 556 37,000 -191 Level FlightAware ADS-B
Tue 04:50:33 PM 39.8740 -80.5160 122° Southeast 476 548 36,700 -186 Descending FlightAware ADS-B
Tue 04:51:19 PM 39.8300 -80.4200 121° Southeast 476 548 36,700 -1,241 Level FlightAware ADS-B
Tue 04:52:00 PM 39.7660 -80.2920 123° Southeast 483 556 34,900 -1,765 Descending FlightAware ADS-B
Tue 04:52:44 PM 39.7130 -80.1820 122° Southeast 485 558 34,200 -923 Descending FlightAware ADS-B
Tue 04:53:18 PM 39.6740 -80.1010 122° Southeast 485 558 33,700 -923 Descending FlightAware ADS-B
Tue 04:54:02 PM 39.6200 -79.9910 122° Southeast 483 556 33,000 -929 Descending FlightAware ADS-B
Tue 04:54:42 PM 39.5730 -79.8920 122° Southeast 478 550 32,400 -1,816 Descending FlightAware ADS-B
Tue 04:55:18 PM 39.5450 -79.7950 110° East 479 551 30,700 -2,605 Descending FlightAware ADS-B
Tue 04:55:58 PM 39.5250 -79.6870 103° East 472 543 29,100 -2,357 Descending FlightAware ADS-B
Tue 04:56:42 PM 39.5030 -79.5670 103° East 463 533 27,400 -1,575 Descending FlightAware ADS-B
Tue 04:57:18 PM 39.4860 -79.4720 103° East 448 516 27,000 -815 Descending FlightAware ADS-B
Tue 04:58:03 PM 39.4660 -79.3560 103° East 440 506 26,300 -1,395 Descending FlightAware ADS-B
Tue 04:58:44 PM 39.4460 -79.2510 104° East 430 495 25,000 -1,976 Descending FlightAware ADS-B
Tue 04:59:28 PM 39.4270 -79.1430 103° East 419 482 23,500 -2,045 Descending FlightAware ADS-B
Tue 05:00:12 PM 39.4080 -79.0350 103° East 411 473 22,000 -2,049 Descending FlightAware ADS-B
Tue 05:00:50 PM 39.3920 -78.9450 103° East 405 466 20,700 -1,929 Descending FlightAware ADS-B
Tue 05:01:36 PM 39.3740 -78.8430 103° East 398 458 19,300 -1,977 Descending FlightAware ADS-B
Tue 05:02:18 PM 39.3550 -78.7420 104° East 392 451 17,800 -2,122 Descending FlightAware ADS-B
Tue 05:02:58 PM 39.3400 -78.6530 102° East 391 450 16,400 -2,000 Descending FlightAware ADS-B
Tue 05:03:42 PM 39.3220 -78.5550 103° East 386 444 15,000 -2,000 Descending FlightAware ADS-B
Tue 05:04:16 PM 39.3080 -78.4830 104° East 380 437 13,800 -1,929 Descending FlightAware ADS-B
Tue 05:05:06 PM 39.2870 -78.3760 104° East 359 413 12,300 -1,733 Descending FlightAware ADS-B
Tue 05:05:46 PM 39.2520 -78.3020 121° Southeast 340 391 11,200 -1,125 Descending FlightAware ADS-B
Tue 05:06:26 PM 39.2190 -78.2370 123° Southeast 311 358 10,800 -847 Descending FlightAware ADS-B
Tue 05:07:11 PM 39.1960 -78.1640 112° Southeast 300 345 10,000 -1,182 Descending FlightAware ADS-B
Tue 05:07:32 PM 39.1900 -78.1280 102° East 300 345 9,500 -1,333 Descending FlightAware ADS-B
Tue 05:07:56 PM 39.1840 -78.0840 100° East 299 344 9,000 -1,231 Descending FlightAware ADS-B
Tue 05:08:11 PM 39.1840 -78.0590 90° East 298 343 8,700 -1,467 Descending FlightAware ADS-B
Tue 05:08:41 PM 39.1890 -78.0040 83° East 300 345 7,900 -1,067 Descending FlightAware ADS-B
Tue 05:08:56 PM 39.1920 -77.9770 82° East 297 342 7,900  Level FlightAware ADS-B
Tue 05:09:31 PM 39.1980 -77.9170 83° East 293 337 7,900 -120 Level FlightAware ADS-B
Tue 05:09:46 PM 39.2010 -77.8920 81° East 292 336 7,800 -1,050 Descending FlightAware ADS-B
Tue 05:10:11 PM 39.2050 -77.8480 83° East 296 341 7,200 -1,418 Descending FlightAware ADS-B
Tue 05:10:41 PM 39.2100 -77.7980 83° East 293 337 6,500 -1,350 Descending FlightAware ADS-B
Tue 05:10:51 PM 39.2120 -77.7790 82° East 292 336 6,300 -1,371 Descending FlightAware ADS-B
Tue 05:11:16 PM 39.2160 -77.7350 83° East 291 335 5,700 -1,320 Descending FlightAware ADS-B
Tue 05:11:41 PM 39.2200 -77.6960 82° East 291 335 5,200 -1,067 Descending FlightAware ADS-B
Tue 05:12:01 PM 39.2250 -77.6580 80° East 284 327 4,900 -400 Descending FlightAware ADS-B
Tue 05:12:26 PM 39.2290 -77.6200 82° East 264 304 4,900 -257 Level FlightAware ADS-B
Tue 05:13:11 PM 39.2360 -77.5610 81° East 230 265 4,600 -676 Descending FlightAware ADS-B
Tue 05:13:37 PM 39.2410 -77.5220 81° East 226 260 4,100 -1,167 Descending FlightAware ADS-B
Tue 05:13:47 PM 39.2430 -77.5080 80° East 226 260 3,900 -878 Descending FlightAware ADS-B
Tue 05:14:18 PM 39.2370 -77.4730 102° East 216 249 3,500 -837 Descending FlightAware ADS-B
Tue 05:14:30 PM 39.2270 -77.4640 145° Southeast 201 231 3,300 -783 Descending FlightAware ADS-B
Tue 05:14:41 PM 39.2210 -77.4610 159° South 198 228 3,200 -800 Descending FlightAware ADS-B
Tue 05:15:00 PM 39.2030 -77.4560 168° South 192 221 2,900 -400 Descending FlightAware ADS-B
Tue 05:15:26 PM 39.1780 -77.4560 180° South 190 219 2,900  Level FlightAware ADS-B
Tue 05:15:55 PM 39.1530 -77.4570 182° South 193 222 2,900  Level FlightAware ADS-B
Tue 05:16:20 PM 39.1320 -77.4570 180° South 191 220 2,900 -240 Level FlightAware ADS-B
Tue 05:16:45 PM 39.1080 -77.4570 180° South 185 213 2,700 -486 Descending FlightAware ADS-B
Tue 05:16:57 PM 39.1020 -77.4570 180° South 185 213 2,600 -828 Descending FlightAware ADS-B
Tue 05:17:43 PM 39.0620 -77.4580 181° South 181 208 1,900 -1,015 Descending FlightAware ADS-B
Tue 05:18:02 PM 39.0440 -77.4580 180° South 174 200 1,500 -889 Descending FlightAware ADS-B
Tue 05:18:37 PM 39.0170 -77.4590 182° South 153 176 1,100 -738 Descending FlightAware ADS-B
Tue 05:19:07 PM 38.9970 -77.4590 180° South 148 170 700 -500 Descending FlightAware ADS-B
Tue 05:19:37 PM 38.9800 -77.4600 183° South 149 171 600 -200 Descending FlightAware ADS-B
Tue 05:27:00 PM 38.9474 -77.4599 165° South  Level Estimated
Tue 05:28:00 PM 38.9474 -77.4599 165° South  Level Estimated

Login

Don't have an account? Register now (free) for customized features, flight alerts, and more!